createdAt,value
2022-08-22T00:00:34.269Z,98533.63
2022-08-22T00:02:55.766Z,98520.81
2022-08-22T00:03:18.638Z,98541.22
2022-08-22T00:06:18.860Z,98536.41
2022-08-22T00:08:55.785Z,98527.22
2022-08-22T00:11:41.166Z,98533.19
2022-08-22T00:14:40.376Z,98543.97
2022-08-22T00:17:36.606Z,98536.78
2022-08-22T00:20:04.383Z,98528.78
2022-08-22T00:22:37.301Z,98529.97
2022-08-22T00:25:07.722Z,98549.53
2022-08-22T00:28:19.439Z,98544.75
2022-08-22T00:30:56.739Z,98546.34
2022-08-22T00:33:36.999Z,98537.53
2022-08-22T00:36:24.645Z,98514.41
2022-08-22T00:39:10.535Z,98544.69
2022-08-22T00:42:15.886Z,98534.28
2022-08-22T00:44:56.735Z,98536.63
2022-08-22T00:47:39.049Z,98535.81
2022-08-22T00:50:44.384Z,98535.78
2022-08-22T00:53:48.898Z,98534.97
2022-08-22T00:56:37.547Z,98539.03
2022-08-22T00:59:26.099Z,98537.03
2022-08-22T01:01:56.354Z,98534.22
2022-08-22T01:04:41.474Z,98539.00
2022-08-22T01:07:20.564Z,98546.19
2022-08-22T01:10:14.822Z,98540.16
2022-08-22T01:12:57.687Z,98544.94
2022-08-22T01:15:29.487Z,98546.19
2022-08-22T01:18:27.538Z,98544.19
2022-08-22T01:21:24.511Z,98546.19
2022-08-22T01:24:10.373Z,98546.22
2022-08-22T01:27:05.654Z,98545.81
2022-08-22T01:30:01.182Z,98550.22
2022-08-22T01:32:36.084Z,98558.22
2022-08-22T01:35:28.297Z,98549.44
2022-08-22T01:38:13.848Z,98555.84
2022-08-22T01:41:03.639Z,98548.66
2022-08-22T01:43:59.716Z,98560.63
2022-08-22T01:46:45.323Z,98546.25
2022-08-22T01:49:33.910Z,98548.66
2022-08-22T01:52:29.794Z,98551.06
2022-08-22T01:55:07.995Z,98543.06
2022-08-22T01:57:54.627Z,98530.31
2022-08-22T02:00:35.058Z,98540.66
2022-08-22T02:03:03.489Z,98543.84
2022-08-22T02:05:38.007Z,98547.03
2022-08-22T02:08:23.151Z,98548.25
2022-08-22T02:10:53.273Z,98546.63
2022-08-22T02:13:44.080Z,98541.06
2022-08-22T02:16:24.673Z,98543.06
2022-08-22T02:19:19.313Z,98543.44
2022-08-22T02:21:53.653Z,98552.63
2022-08-22T02:24:24.696Z,98543.84
2022-08-22T02:27:04.444Z,98554.25
2022-08-22T02:29:35.867Z,98540.31
2022-08-22T02:32:06.986Z,98538.38
2022-08-22T02:34:48.766Z,98535.19
2022-08-22T02:37:39.696Z,98538.38
2022-08-22T02:40:34.946Z,98535.16
2022-08-22T02:43:25.657Z,98519.19
2022-08-22T02:46:13.716Z,98530.75
2022-08-22T02:48:59.167Z,98537.06
2022-08-22T02:51:50.423Z,98530.66
2022-08-22T02:54:26.381Z,98533.09
2022-08-22T02:57:09.582Z,98527.91
2022-08-22T03:00:31.527Z,98533.53
2022-08-22T03:03:15.030Z,98536.75
2022-08-22T03:05:48.610Z,98537.94
2022-08-22T03:08:24.917Z,98542.34
2022-08-22T03:11:13.939Z,98547.09
2022-08-22T03:14:18.378Z,98544.75
2022-08-22T03:17:08.854Z,98546.75
2022-08-22T03:19:51.110Z,98548.75
2022-08-22T03:22:25.634Z,98553.09
2022-08-22T03:25:02.283Z,98550.69
2022-08-22T03:27:41.487Z,98543.13
2022-08-22T03:30:18.553Z,98554.72
2022-08-22T03:33:14.631Z,98555.56
2022-08-22T03:35:42.352Z,98557.53
2022-08-22T03:38:30.149Z,98550.75
2022-08-22T03:41:27.711Z,98563.13
2022-08-22T03:44:13.360Z,98565.94
2022-08-22T03:46:55.891Z,98568.75
2022-08-22T03:49:49.521Z,98584.34
2022-08-22T03:53:05.093Z,98569.97
2022-08-22T03:55:47.919Z,98585.53
2022-08-22T03:58:46.294Z,98581.16
2022-08-22T04:01:29.690Z,98603.13
2022-08-22T04:04:15.358Z,98601.13
2022-08-22T04:07:32.108Z,98596.72
2022-08-22T04:10:48.644Z,98595.94
2022-08-22T04:13:41.085Z,98592.34
2022-08-22T04:16:54.399Z,98595.94
2022-08-22T04:19:40.492Z,98598.75
2022-08-22T04:22:18.510Z,98602.72
2022-08-22T04:24:51.966Z,98598.28
2022-08-22T04:27:29.741Z,98601.47
2022-08-22T04:30:25.642Z,98602.25
2022-08-22T04:33:02.352Z,98600.22
2022-08-22T04:35:54.042Z,98594.25
2022-08-22T04:38:47.990Z,98597.78
2022-08-22T04:41:24.676Z,98598.19
2022-08-22T04:44:02.026Z,98577.78
2022-08-22T04:46:39.607Z,98593.34
2022-08-22T04:49:32.922Z,98604.56
2022-08-22T04:52:23.087Z,98583.00
2022-08-22T04:55:02.692Z,98596.94
2022-08-22T04:57:57.367Z,98596.13
2022-08-22T05:00:49.622Z,98592.59
2022-08-22T05:03:22.169Z,98612.94
2022-08-22T05:05:51.709Z,98614.13
2022-08-22T05:08:25.615Z,98608.16
2022-08-22T05:10:54.746Z,98608.53
2022-08-22T05:13:37.830Z,98601.38
2022-08-22T05:16:13.071Z,98617.72
2022-08-22T05:18:49.324Z,98614.13
2022-08-22T05:21:36.417Z,98625.31
2022-08-22T05:24:09.680Z,98625.75
2022-08-22T05:26:50.757Z,98631.69
2022-08-22T05:29:23.425Z,98627.28
2022-08-22T05:31:54.774Z,98635.28
2022-08-22T05:34:28.840Z,98622.91
2022-08-22T05:37:10.350Z,98626.06
2022-08-22T05:39:41.212Z,98644.00
2022-08-22T05:42:16.295Z,98650.78
2022-08-22T05:44:43.608Z,98640.28
2022-08-22T05:47:32.063Z,98652.25
2022-08-22T05:50:24.145Z,98646.59
2022-08-22T05:53:10.971Z,98651.88
2022-08-22T05:56:04.304Z,98653.91
2022-08-22T05:58:43.300Z,98663.88
2022-08-22T06:01:17.065Z,98663.88
2022-08-22T06:04:04.804Z,98662.66
2022-08-22T06:06:38.398Z,98664.66
2022-08-22T06:09:24.215Z,98677.06
2022-08-22T06:12:06.353Z,98684.16
2022-08-22T06:15:12.262Z,98681.31
2022-08-22T06:17:48.201Z,98668.84
2022-08-22T06:20:28.613Z,98667.25
2022-08-22T06:23:01.015Z,98667.19
2022-08-22T06:25:32.986Z,98669.97
2022-08-22T06:28:08.832Z,98657.47
2022-08-22T06:30:39.723Z,98655.91
2022-08-22T06:33:12.611Z,98666.28
2022-08-22T06:36:28.698Z,98667.09
2022-08-22T06:39:17.802Z,98663.53
2022-08-22T06:42:16.674Z,98673.84
2022-08-22T06:44:51.518Z,98677.34
2022-08-22T06:47:33.322Z,98676.88
2022-08-22T06:50:13.539Z,98692.31
2022-08-22T06:52:56.661Z,98681.06
2022-08-22T06:55:27.655Z,98675.28
2022-08-22T06:57:58.996Z,98676.97
2022-08-22T07:00:27.916Z,98668.84
2022-08-22T07:03:00.637Z,98664.66
2022-08-22T07:05:35.062Z,98671.75
2022-08-22T07:08:08.600Z,98682.97
2022-08-22T07:10:37.315Z,98678.13
2022-08-22T07:13:08.449Z,98669.38
2022-08-22T07:15:43.265Z,98665.69
2022-08-22T07:18:22.098Z,98667.31
2022-08-22T07:20:55.329Z,98661.75
2022-08-22T07:23:35.628Z,98677.72
2022-08-22T07:26:09.190Z,98680.28
2022-08-22T07:28:58.648Z,98678.13
2022-08-22T07:32:04.353Z,98675.31
2022-08-22T07:34:40.389Z,98683.56
2022-08-22T07:37:18.504Z,98666.78
2022-08-22T07:40:17.235Z,98685.16
2022-08-22T07:42:52.092Z,98670.53
2022-08-22T07:45:49.577Z,98683.09
2022-08-22T07:48:26.296Z,98690.84
2022-08-22T07:51:05.852Z,98693.06
2022-08-22T07:53:42.336Z,98689.22
2022-08-22T07:56:21.760Z,98682.25
2022-08-22T07:58:55.671Z,98675.56
2022-08-22T08:01:25.647Z,98690.41
2022-08-22T08:04:02.394Z,98685.50
2022-08-22T08:06:32.078Z,98683.78
2022-08-22T08:08:59.801Z,98674.31
2022-08-22T08:11:32.751Z,98675.44
2022-08-22T08:14:05.594Z,98666.81
2022-08-22T08:16:47.894Z,98669.63
2022-08-22T08:19:17.692Z,98665.34
2022-08-22T08:21:54.076Z,98664.44
2022-08-22T08:24:41.357Z,98681.00
2022-08-22T08:27:44.151Z,98688.63
2022-08-22T08:30:16.424Z,98692.97
2022-08-22T08:32:49.494Z,98685.63
2022-08-22T08:35:30.056Z,98690.03
2022-08-22T08:38:18.233Z,98686.44
2022-08-22T08:41:04.449Z,98683.72
2022-08-22T08:43:53.307Z,98679.91
2022-08-22T08:46:42.558Z,98682.00
2022-08-22T08:49:35.931Z,98689.28
2022-08-22T08:52:15.680Z,98682.13
2022-08-22T08:54:57.621Z,98683.78
2022-08-22T08:57:35.083Z,98674.81
2022-08-22T09:00:46.033Z,98675.81
2022-08-22T09:03:24.023Z,98683.59
2022-08-22T09:06:31.290Z,98680.56
2022-08-22T09:09:05.152Z,98675.00
2022-08-22T09:12:00.560Z,98674.06
2022-08-22T09:15:14.094Z,98665.00
2022-08-22T09:18:12.924Z,98681.25
2022-08-22T09:21:06.906Z,98667.75
2022-08-22T09:23:58.899Z,98664.88
2022-08-22T09:27:03.292Z,98652.69
2022-08-22T09:30:04.847Z,98653.94
2022-08-22T09:32:35.798Z,98662.94
2022-08-22T09:35:40.482Z,98649.19
2022-08-22T09:38:25.127Z,98656.88
2022-08-22T09:41:07.693Z,98647.75
2022-08-22T09:43:41.855Z,98654.75
2022-08-22T09:46:29.445Z,98650.44
2022-08-22T09:49:05.593Z,98651.94
2022-08-22T09:52:15.564Z,98653.84
2022-08-22T09:55:07.943Z,98652.63
2022-08-22T09:57:51.751Z,98652.31
2022-08-22T10:00:55.375Z,98653.44
2022-08-22T10:03:50.755Z,98652.97
2022-08-22T10:06:28.560Z,98647.47
2022-08-22T10:09:08.844Z,98639.38
2022-08-22T10:11:45.507Z,98635.22
2022-08-22T10:14:22.290Z,98632.19
2022-08-22T10:17:05.583Z,98640.16
2022-08-22T10:19:46.941Z,98639.56
2022-08-22T10:22:30.268Z,98631.88
2022-08-22T10:25:13.434Z,98634.94
2022-08-22T10:27:40.446Z,98629.53
2022-08-22T10:30:13.719Z,98632.91
2022-08-22T10:33:12.176Z,98622.50
2022-08-22T10:36:19.982Z,98624.19
2022-08-22T10:38:58.767Z,98624.25
2022-08-22T10:42:04.059Z,98622.06
2022-08-22T10:45:10.242Z,98620.50
2022-08-22T10:48:03.415Z,98612.78
2022-08-22T10:50:48.207Z,98617.84
2022-08-22T10:53:30.397Z,98620.44
2022-08-22T10:56:09.910Z,98605.50
2022-08-22T10:59:04.889Z,98588.31
2022-08-22T11:01:42.038Z,98609.91
2022-08-22T11:04:34.801Z,98605.97
2022-08-22T11:07:36.384Z,98604.66
2022-08-22T11:10:21.544Z,98602.81
2022-08-22T11:12:59.473Z,98595.84
2022-08-22T11:16:04.571Z,98596.19
2022-08-22T11:18:35.030Z,98593.03
2022-08-22T11:21:15.055Z,98586.38
2022-08-22T11:23:51.802Z,98579.69
2022-08-22T11:26:46.811Z,98578.91
2022-08-22T11:29:39.020Z,98577.75
2022-08-22T11:32:30.927Z,98582.63
2022-08-22T11:35:18.241Z,98570.53
2022-08-22T11:38:03.012Z,98562.81
2022-08-22T11:40:43.178Z,98557.59
2022-08-22T11:43:18.955Z,98556.22
2022-08-22T11:45:52.272Z,98562.34
2022-08-22T11:48:20.274Z,98564.59
2022-08-22T11:51:16.355Z,98572.88
2022-08-22T11:54:00.360Z,98559.94
2022-08-22T11:56:35.537Z,98563.59
2022-08-22T11:59:19.567Z,98556.28
2022-08-22T12:01:59.814Z,98560.34
2022-08-22T12:04:42.677Z,98558.31
2022-08-22T12:07:18.484Z,98540.00
2022-08-22T12:09:50.784Z,98539.88
2022-08-22T12:12:23.701Z,98532.88
2022-08-22T12:15:09.332Z,98535.84
2022-08-22T12:17:51.012Z,98526.66
2022-08-22T12:20:32.323Z,98534.81
2022-08-22T12:23:38.019Z,98534.41
2022-08-22T12:26:30.937Z,98491.16
2022-08-22T12:29:20.222Z,98522.88
2022-08-22T12:32:34.094Z,98511.19
2022-08-22T12:35:20.030Z,98520.56
2022-08-22T12:38:31.299Z,98517.97
2022-08-22T12:41:28.116Z,98511.88
2022-08-22T12:44:18.039Z,98515.81
2022-08-22T12:47:04.448Z,98507.78
2022-08-22T12:49:44.926Z,98504.78
2022-08-22T12:52:52.411Z,98501.69
2022-08-22T12:55:47.670Z,98482.63
2022-08-22T12:58:39.741Z,98498.88
2022-08-22T13:01:09.174Z,98500.03
2022-08-22T13:03:47.295Z,98489.03
2022-08-22T13:06:36.815Z,98498.53
2022-08-22T13:09:18.761Z,98494.75
2022-08-22T13:11:51.419Z,98477.59
2022-08-22T13:14:25.961Z,98492.72
2022-08-22T13:16:58.784Z,98490.69
2022-08-22T13:19:32.466Z,98495.44
2022-08-22T13:22:16.853Z,98487.41
2022-08-22T13:24:52.423Z,98490.66
2022-08-22T13:27:24.267Z,98495.84
2022-08-22T13:30:02.217Z,98499.00
2022-08-22T13:32:40.146Z,98493.81
2022-08-22T13:35:24.621Z,98500.16
2022-08-22T13:38:04.153Z,98485.94
2022-08-22T13:40:34.335Z,98498.09
2022-08-22T13:43:27.065Z,98489.09
2022-08-22T13:45:58.181Z,98487.81
2022-08-22T13:48:50.250Z,98501.22
2022-08-22T13:51:57.258Z,98502.03
2022-08-22T13:54:58.614Z,98492.88
2022-08-22T13:57:51.701Z,98491.28
2022-08-22T14:00:25.473Z,98495.84
2022-08-22T14:03:07.997Z,98496.31
2022-08-22T14:05:39.443Z,98498.03
2022-08-22T14:08:13.233Z,98495.34
2022-08-22T14:10:47.399Z,98509.06
2022-08-22T14:13:25.534Z,98502.94
2022-08-22T14:16:03.555Z,98501.97
2022-08-22T14:18:36.650Z,98503.84
2022-08-22T14:21:33.429Z,98502.84
2022-08-22T14:24:18.937Z,98506.94
2022-08-22T14:27:05.087Z,98507.88
2022-08-22T14:29:55.146Z,98487.63
2022-08-22T14:32:22.607Z,98508.81
2022-08-22T14:35:01.442Z,98509.72
2022-08-22T14:37:42.102Z,98515.28
2022-08-22T14:40:14.540Z,98508.94
2022-08-22T14:42:52.341Z,98505.13
2022-08-22T14:45:30.974Z,98501.66
2022-08-22T14:48:31.698Z,98504.75
2022-08-22T14:51:10.211Z,98501.50
2022-08-22T14:53:40.344Z,98499.59
2022-08-22T14:56:13.598Z,98497.22
2022-08-22T14:59:04.750Z,98495.16
2022-08-22T15:01:53.160Z,98502.34
2022-08-22T15:04:34.124Z,98505.09
2022-08-22T15:07:02.613Z,98498.44
2022-08-22T15:09:43.014Z,98493.91
2022-08-22T15:12:28.202Z,98481.47
2022-08-22T15:15:00.671Z,98488.03
2022-08-22T15:17:35.426Z,98494.28
2022-08-22T15:20:27.677Z,98495.88
2022-08-22T15:23:23.049Z,98490.78
2022-08-22T15:26:02.003Z,98487.34
2022-08-22T15:28:52.714Z,98493.13
2022-08-22T15:31:22.337Z,98473.56
2022-08-22T15:33:51.428Z,98495.63
2022-08-22T15:36:27.392Z,98493.72
2022-08-22T15:39:16.347Z,98492.78
2022-08-22T15:41:51.204Z,98495.81
2022-08-22T15:44:32.712Z,98500.81
2022-08-22T15:47:30.413Z,98489.38
2022-08-22T15:50:05.483Z,98489.88
2022-08-22T15:53:06.600Z,98490.13
2022-08-22T15:55:37.456Z,98484.91
2022-08-22T15:58:20.577Z,98493.78
2022-08-22T16:01:18.944Z,98495.59
2022-08-22T16:04:05.337Z,98496.63
2022-08-22T16:07:03.004Z,98494.16
2022-08-22T16:09:43.539Z,98487.03
2022-08-22T16:12:35.430Z,98490.19
2022-08-22T16:15:08.233Z,98477.53
2022-08-22T16:17:43.066Z,98477.75
2022-08-22T16:20:19.723Z,98480.69
2022-08-22T16:22:56.907Z,98478.88
2022-08-22T16:25:50.625Z,98477.84
2022-08-22T16:28:56.220Z,98471.88
2022-08-22T16:31:27.490Z,98478.41
2022-08-22T16:33:59.270Z,98475.38
2022-08-22T16:37:03.524Z,98481.13
2022-08-22T16:39:36.718Z,98471.59
2022-08-22T16:42:13.430Z,98477.69
2022-08-22T16:44:50.413Z,98492.72
2022-08-22T16:47:33.166Z,98487.31
2022-08-22T16:50:18.586Z,98450.94
2022-08-22T16:53:21.380Z,98501.41
2022-08-22T16:56:31.759Z,98496.41
2022-08-22T16:59:23.750Z,98491.50
2022-08-22T17:02:21.795Z,98500.06
2022-08-22T17:05:15.794Z,98500.00
2022-08-22T17:08:05.290Z,98509.34
2022-08-22T17:10:49.271Z,98518.25
2022-08-22T17:13:30.231Z,98522.84
2022-08-22T17:16:28.821Z,98521.81
2022-08-22T17:19:05.331Z,98525.50
2022-08-22T17:22:04.691Z,98519.63
2022-08-22T17:24:36.612Z,98535.44
2022-08-22T17:27:03.783Z,98536.41
2022-08-22T17:29:55.230Z,98536.59
2022-08-22T17:33:04.255Z,98555.19
2022-08-22T17:36:26.344Z,98554.47
2022-08-22T17:39:22.636Z,98559.66
2022-08-22T17:41:53.454Z,98558.22
2022-08-22T17:45:04.128Z,98577.53
2022-08-22T17:47:41.402Z,98578.41
2022-08-22T17:50:31.193Z,98584.56
2022-08-22T17:53:33.689Z,98599.00
2022-08-22T17:56:08.066Z,98591.88
2022-08-22T17:59:04.831Z,98600.41
2022-08-22T18:01:55.462Z,98604.09
2022-08-22T18:04:33.787Z,98577.03
2022-08-22T18:07:30.194Z,98611.41
2022-08-22T18:10:22.363Z,98607.44
2022-08-22T18:13:33.937Z,98620.72
2022-08-22T18:16:09.523Z,98622.41
2022-08-22T18:18:48.186Z,98626.00
2022-08-22T18:21:29.540Z,98632.13
2022-08-22T18:24:10.832Z,98620.19
2022-08-22T18:27:03.047Z,98641.06
2022-08-22T18:29:48.570Z,98637.63
2022-08-22T18:32:26.959Z,98634.16
2022-08-22T18:35:02.698Z,98640.44
2022-08-22T18:37:30.974Z,98635.22
2022-08-22T18:40:05.834Z,98629.31
2022-08-22T18:42:44.933Z,98631.03
2022-08-22T18:45:44.042Z,98627.13
2022-08-22T18:48:49.505Z,98650.94
2022-08-22T18:51:38.321Z,98649.06
2022-08-22T18:54:07.031Z,98660.25
2022-08-22T18:56:51.630Z,98655.56
2022-08-22T18:59:33.912Z,98653.16
2022-08-22T19:02:35.712Z,98660.59
2022-08-22T19:05:26.871Z,98657.84
2022-08-22T19:08:08.003Z,98655.53
2022-08-22T19:11:03.193Z,98647.13
2022-08-22T19:14:00.859Z,98657.59
2022-08-22T19:16:43.172Z,98667.16
2022-08-22T19:19:17.390Z,98668.31
2022-08-22T19:22:19.726Z,98652.56
2022-08-22T19:25:18.203Z,98649.38
2022-08-22T19:28:11.749Z,98655.88
2022-08-22T19:30:49.177Z,98666.41
2022-08-22T19:33:34.521Z,98671.31
2022-08-22T19:36:30.169Z,98681.50
2022-08-22T19:39:25.452Z,98683.22
2022-08-22T19:41:59.667Z,98673.72
2022-08-22T19:44:26.830Z,98674.47
2022-08-22T19:47:18.790Z,98660.56
2022-08-22T19:49:58.714Z,98672.72
2022-08-22T19:52:54.579Z,98662.00
2022-08-22T19:55:43.382Z,98666.53
2022-08-22T19:58:31.923Z,98671.34
2022-08-22T20:01:29.575Z,98687.06
2022-08-22T20:04:21.479Z,98700.59
2022-08-22T20:07:02.467Z,98704.22
2022-08-22T20:09:48.109Z,98703.72
2022-08-22T20:12:58.074Z,98691.47
2022-08-22T20:15:28.281Z,98696.34
2022-08-22T20:21:11.942Z,98703.69
2022-08-22T20:23:43.662Z,98702.94
2022-08-22T20:26:17.486Z,98713.81
2022-08-22T20:28:52.403Z,98703.84
2022-08-22T20:31:27.159Z,98693.13
2022-08-22T20:34:20.579Z,98695.19
2022-08-22T20:37:04.290Z,98692.38
2022-08-22T20:39:43.700Z,98692.00
2022-08-22T20:42:15.579Z,98677.59
2022-08-22T20:44:53.473Z,98674.41
2022-08-22T20:47:26.842Z,98620.28
2022-08-22T20:50:13.572Z,98669.25
2022-08-22T20:52:51.797Z,98666.06
2022-08-22T20:55:31.597Z,98675.28
2022-08-22T20:58:06.202Z,98676.84
2022-08-22T21:00:40.278Z,98684.44
2022-08-22T21:03:41.577Z,98682.31
2022-08-22T21:06:22.841Z,98683.19
2022-08-22T21:09:31.526Z,98673.16
2022-08-22T21:12:01.472Z,98671.25
2022-08-22T21:14:39.975Z,98663.78
2022-08-22T21:17:39.284Z,98659.44
2022-08-22T21:20:21.428Z,98664.84
2022-08-22T21:22:49.611Z,98662.19
2022-08-22T21:25:17.075Z,98665.91
2022-08-22T21:27:48.258Z,98664.34
2022-08-22T21:30:21.233Z,98672.16
2022-08-22T21:32:57.391Z,98657.03
2022-08-22T21:35:33.351Z,98654.59
2022-08-22T21:38:01.883Z,98662.63
2022-08-22T21:40:39.588Z,98645.53
2022-08-22T21:43:26.760Z,98643.94
2022-08-22T21:45:54.061Z,98641.59
2022-08-22T21:48:36.806Z,98649.56
2022-08-22T21:51:26.425Z,98650.75
2022-08-22T21:54:22.295Z,98632.78
2022-08-22T21:57:14.669Z,98621.63
2022-08-22T21:59:59.635Z,98625.66
2022-08-22T22:02:39.626Z,98626.41
2022-08-22T22:05:17.139Z,98626.44
2022-08-22T22:07:46.734Z,98622.44
2022-08-22T22:10:17.285Z,98628.88
2022-08-22T22:12:46.981Z,98623.22
2022-08-22T22:15:18.257Z,98619.50
2022-08-22T22:17:46.209Z,98610.44
2022-08-22T22:20:16.400Z,98602.44
2022-08-22T22:22:46.459Z,98607.59
2022-08-22T22:25:40.853Z,98603.25
2022-08-22T22:28:21.938Z,98608.09
2022-08-22T22:30:53.276Z,98605.75
2022-08-22T22:33:27.504Z,98610.44
2022-08-22T22:35:57.851Z,98615.16
2022-08-22T22:38:25.626Z,98599.97
2022-08-22T22:40:53.576Z,98608.81
2022-08-22T22:43:21.402Z,98620.56
2022-08-22T22:45:52.236Z,98601.50
2022-08-22T22:48:24.033Z,98602.03
2022-08-22T22:50:55.865Z,98600.09
2022-08-22T22:53:40.309Z,98606.91
2022-08-22T22:56:13.854Z,98599.06
2022-08-22T22:58:42.305Z,98603.03
2022-08-22T23:01:20.283Z,98605.84
2022-08-22T23:03:48.468Z,98591.13
2022-08-22T23:06:19.502Z,98596.81
2022-08-22T23:08:48.551Z,98608.44
2022-08-22T23:11:24.798Z,98615.31
2022-08-22T23:13:53.241Z,98620.13
2022-08-22T23:16:26.542Z,98607.34
2022-08-22T23:18:54.320Z,98604.94
2022-08-22T23:21:28.378Z,98601.81
2022-08-22T23:23:59.862Z,98607.44
2022-08-22T23:26:28.429Z,98613.06
2022-08-22T23:28:56.625Z,98612.25
2022-08-22T23:31:30.386Z,98623.03
2022-08-22T23:34:02.328Z,98607.44
2022-08-22T23:36:30.025Z,98608.22
2022-08-22T23:38:58.710Z,98615.06
2022-08-22T23:41:26.705Z,98623.13
2022-08-22T23:43:55.691Z,98619.56
2022-08-22T23:46:24.812Z,98616.34
2022-08-22T23:48:52.448Z,98623.13
2022-08-22T23:51:22.941Z,98614.75
2022-08-22T23:53:54.795Z,98618.38
2022-08-22T23:56:29.834Z,98629.19
2022-08-22T23:58:59.333Z,98618.38
